sensor_id;sensor_type;location;lat;lon;timestamp;temperature;humidity
33881;DHT22;20172;47.530;10.256;2022-12-07T00:01:39;2.90;99.90
33881;DHT22;20172;47.530;10.256;2022-12-07T00:04:06;3.00;99.90
33881;DHT22;20172;47.530;10.256;2022-12-07T00:06:32;3.00;99.90
33881;DHT22;20172;47.530;10.256;2022-12-07T00:08:58;3.00;99.90
33881;DHT22;20172;47.530;10.256;2022-12-07T00:11:24;3.10;99.90
33881;DHT22;20172;47.530;10.256;2022-12-07T00:13:53;3.00;99.90
33881;DHT22;20172;47.530;10.256;2022-12-07T00:16:20;2.90;99.90
33881;DHT22;20172;47.530;10.256;2022-12-07T00:18:46;2.90;99.90
33881;DHT22;20172;47.530;10.256;2022-12-07T00:21:12;2.90;99.90
33881;DHT22;20172;47.530;10.256;2022-12-07T00:23:38;3.00;99.90
33881;DHT22;20172;47.530;10.256;2022-12-07T00:26:05;3.00;99.90
33881;DHT22;20172;47.530;10.256;2022-12-07T00:28:31;3.00;99.90
33881;DHT22;20172;47.530;10.256;2022-12-07T00:31:06;3.00;99.90
33881;DHT22;20172;47.530;10.256;2022-12-07T00:33:33;3.10;99.90
33881;DHT22;20172;47.530;10.256;2022-12-07T00:35:59;3.20;99.90
33881;DHT22;20172;47.530;10.256;2022-12-07T00:38:26;3.20;99.90
33881;DHT22;20172;47.530;10.256;2022-12-07T00:40:56;3.30;99.90
33881;DHT22;20172;47.530;10.256;2022-12-07T00:43:22;3.30;99.90
33881;DHT22;20172;47.530;10.256;2022-12-07T00:45:47;3.30;99.90
33881;DHT22;20172;47.530;10.256;2022-12-07T00:48:13;3.20;99.90
33881;DHT22;20172;47.530;10.256;2022-12-07T00:50:38;3.40;99.90
33881;DHT22;20172;47.530;10.256;2022-12-07T00:53:03;3.40;99.90
33881;DHT22;20172;47.530;10.256;2022-12-07T00:55:32;3.30;99.90
33881;DHT22;20172;47.530;10.256;2022-12-07T00:57:58;3.40;99.90
33881;DHT22;20172;47.530;10.256;2022-12-07T01:00:23;3.20;99.90
33881;DHT22;20172;47.530;10.256;2022-12-07T01:02:49;3.30;99.90
33881;DHT22;20172;47.530;10.256;2022-12-07T01:05:14;3.20;99.90
33881;DHT22;20172;47.530;10.256;2022-12-07T01:07:40;3.10;99.90
33881;DHT22;20172;47.530;10.256;2022-12-07T01:10:05;3.10;99.90
33881;DHT22;20172;47.530;10.256;2022-12-07T01:12:31;3.10;99.90
33881;DHT22;20172;47.530;10.256;2022-12-07T01:14:56;3.00;99.90
33881;DHT22;20172;47.530;10.256;2022-12-07T01:17:22;3.10;99.90
33881;DHT22;20172;47.530;10.256;2022-12-07T01:19:47;3.10;99.90
33881;DHT22;20172;47.530;10.256;2022-12-07T01:22:13;3.20;99.90
33881;DHT22;20172;47.530;10.256;2022-12-07T01:24:38;3.30;99.90
33881;DHT22;20172;47.530;10.256;2022-12-07T01:27:04;3.20;99.90
33881;DHT22;20172;47.530;10.256;2022-12-07T01:29:29;3.20;99.90
33881;DHT22;20172;47.530;10.256;2022-12-07T01:31:55;3.30;99.90
33881;DHT22;20172;47.530;10.256;2022-12-07T01:34:20;3.40;99.90
33881;DHT22;20172;47.530;10.256;2022-12-07T01:36:46;3.40;99.90
33881;DHT22;20172;47.530;10.256;2022-12-07T01:39:11;3.50;99.90
33881;DHT22;20172;47.530;10.256;2022-12-07T01:41:38;3.50;99.90
33881;DHT22;20172;47.530;10.256;2022-12-07T01:44:27;3.40;99.90
33881;DHT22;20172;47.530;10.256;2022-12-07T01:47:04;3.40;99.90
33881;DHT22;20172;47.530;10.256;2022-12-07T01:52:13;3.40;99.90
33881;DHT22;20172;47.530;10.256;2022-12-07T01:54:40;3.50;99.90
33881;DHT22;20172;47.530;10.256;2022-12-07T01:57:06;3.40;99.90
33881;DHT22;20172;47.530;10.256;2022-12-07T01:59:31;3.40;99.90
33881;DHT22;20172;47.530;10.256;2022-12-07T02:01:57;3.40;99.90
33881;DHT22;20172;47.530;10.256;2022-12-07T02:04:23;3.40;99.90
33881;DHT22;20172;47.530;10.256;2022-12-07T02:06:48;3.40;99.90
33881;DHT22;20172;47.530;10.256;2022-12-07T02:09:14;3.40;99.90
33881;DHT22;20172;47.530;10.256;2022-12-07T02:11:40;3.40;99.90
33881;DHT22;20172;47.530;10.256;2022-12-07T02:14:06;3.50;99.90
33881;DHT22;20172;47.530;10.256;2022-12-07T02:16:34;3.50;99.90
33881;DHT22;20172;47.530;10.256;2022-12-07T02:24:15;3.30;99.90
33881;DHT22;20172;47.530;10.256;2022-12-07T02:29:31;3.50;99.90
33881;DHT22;20172;47.530;10.256;2022-12-07T02:32:08;3.40;99.90
33881;DHT22;20172;47.530;10.256;2022-12-07T02:37:10;3.50;99.90
33881;DHT22;20172;47.530;10.256;2022-12-07T02:39:44;3.50;99.90
33881;DHT22;20172;47.530;10.256;2022-12-07T02:42:20;3.50;99.90
33881;DHT22;20172;47.530;10.256;2022-12-07T02:44:47;3.50;99.90
33881;DHT22;20172;47.530;10.256;2022-12-07T02:47:16;3.40;99.90
33881;DHT22;20172;47.530;10.256;2022-12-07T02:49:42;3.40;99.90
33881;DHT22;20172;47.530;10.256;2022-12-07T02:52:08;3.40;99.90
33881;DHT22;20172;47.530;10.256;2022-12-07T02:54:33;3.40;99.90
33881;DHT22;20172;47.530;10.256;2022-12-07T02:57:10;3.40;99.90
33881;DHT22;20172;47.530;10.256;2022-12-07T03:18:20;3.30;99.90
33881;DHT22;20172;47.530;10.256;2022-12-07T03:20:47;3.30;99.90
33881;DHT22;20172;47.530;10.256;2022-12-07T03:23:13;3.30;99.90
33881;DHT22;20172;47.530;10.256;2022-12-07T03:25:40;3.30;99.90
33881;DHT22;20172;47.530;10.256;2022-12-07T03:28:08;3.30;99.90
33881;DHT22;20172;47.530;10.256;2022-12-07T03:30:45;3.40;99.90
33881;DHT22;20172;47.530;10.256;2022-12-07T03:33:19;3.40;99.90
33881;DHT22;20172;47.530;10.256;2022-12-07T03:35:55;3.50;99.90
33881;DHT22;20172;47.530;10.256;2022-12-07T03:38:28;3.50;99.90
33881;DHT22;20172;47.530;10.256;2022-12-07T03:41:02;3.50;99.90
33881;DHT22;20172;47.530;10.256;2022-12-07T03:43:31;3.50;99.90
33881;DHT22;20172;47.530;10.256;2022-12-07T03:48:35;3.60;99.90
33881;DHT22;20172;47.530;10.256;2022-12-07T03:51:13;3.60;99.90
33881;DHT22;20172;47.530;10.256;2022-12-07T03:53:46;3.60;99.90
33881;DHT22;20172;47.530;10.256;2022-12-07T03:56:12;3.60;99.90
33881;DHT22;20172;47.530;10.256;2022-12-07T03:58:38;3.70;99.90
33881;DHT22;20172;47.530;10.256;2022-12-07T04:01:03;3.70;99.90
33881;DHT22;20172;47.530;10.256;2022-12-07T04:03:29;3.80;99.90
33881;DHT22;20172;47.530;10.256;2022-12-07T04:05:54;3.80;99.90
33881;DHT22;20172;47.530;10.256;2022-12-07T04:08:20;3.70;99.90
33881;DHT22;20172;47.530;10.256;2022-12-07T04:10:46;3.70;99.90
33881;DHT22;20172;47.530;10.256;2022-12-07T04:13:11;3.70;99.90
33881;DHT22;20172;47.530;10.256;2022-12-07T04:15:36;3.70;99.90
33881;DHT22;20172;47.530;10.256;2022-12-07T04:18:02;3.60;99.90
33881;DHT22;20172;47.530;10.256;2022-12-07T04:20:27;3.50;99.90
33881;DHT22;20172;47.530;10.256;2022-12-07T04:22:53;3.40;99.90
33881;DHT22;20172;47.530;10.256;2022-12-07T04:25:18;3.40;99.90
33881;DHT22;20172;47.530;10.256;2022-12-07T04:27:44;3.30;99.90
33881;DHT22;20172;47.530;10.256;2022-12-07T04:30:10;3.30;99.90
33881;DHT22;20172;47.530;10.256;2022-12-07T04:32:35;3.30;99.90
33881;DHT22;20172;47.530;10.256;2022-12-07T04:35:01;3.30;99.90
33881;DHT22;20172;47.530;10.256;2022-12-07T04:37:26;3.50;99.90
33881;DHT22;20172;47.530;10.256;2022-12-07T04:39:52;3.50;99.90
33881;DHT22;20172;47.530;10.256;2022-12-07T04:42:17;3.60;99.90
33881;DHT22;20172;47.530;10.256;2022-12-07T04:44:43;3.60;99.90
33881;DHT22;20172;47.530;10.256;2022-12-07T04:47:09;3.60;99.90
33881;DHT22;20172;47.530;10.256;2022-12-07T04:49:35;3.60;99.90
33881;DHT22;20172;47.530;10.256;2022-12-07T04:52:00;3.70;99.90
33881;DHT22;20172;47.530;10.256;2022-12-07T04:54:26;3.70;99.90
33881;DHT22;20172;47.530;10.256;2022-12-07T04:56:51;3.70;99.90
33881;DHT22;20172;47.530;10.256;2022-12-07T04:59:17;3.70;99.90
33881;DHT22;20172;47.530;10.256;2022-12-07T05:01:43;3.70;99.90
33881;DHT22;20172;47.530;10.256;2022-12-07T05:04:08;3.80;99.90
33881;DHT22;20172;47.530;10.256;2022-12-07T05:06:34;3.80;99.90
33881;DHT22;20172;47.530;10.256;2022-12-07T05:08:59;3.70;99.90
33881;DHT22;20172;47.530;10.256;2022-12-07T05:11:25;3.70;99.90
33881;DHT22;20172;47.530;10.256;2022-12-07T05:16:31;3.70;99.90
33881;DHT22;20172;47.530;10.256;2022-12-07T05:18:57;3.70;99.90
33881;DHT22;20172;47.530;10.256;2022-12-07T05:21:22;3.60;99.90
33881;DHT22;20172;47.530;10.256;2022-12-07T05:23:48;3.70;99.90
33881;DHT22;20172;47.530;10.256;2022-12-07T05:26:13;3.60;99.90
33881;DHT22;20172;47.530;10.256;2022-12-07T05:28:39;3.60;99.90
33881;DHT22;20172;47.530;10.256;2022-12-07T05:31:04;3.60;99.90
33881;DHT22;20172;47.530;10.256;2022-12-07T05:33:30;3.60;99.90
33881;DHT22;20172;47.530;10.256;2022-12-07T05:35:55;3.50;99.90
33881;DHT22;20172;47.530;10.256;2022-12-07T05:38:21;3.50;99.90
33881;DHT22;20172;47.530;10.256;2022-12-07T05:40:46;3.40;99.90
33881;DHT22;20172;47.530;10.256;2022-12-07T05:43:12;3.50;99.90
33881;DHT22;20172;47.530;10.256;2022-12-07T05:45:37;3.60;99.90
33881;DHT22;20172;47.530;10.256;2022-12-07T05:48:03;3.60;99.90
33881;DHT22;20172;47.530;10.256;2022-12-07T05:50:28;3.50;99.90
33881;DHT22;20172;47.530;10.256;2022-12-07T05:52:54;3.40;99.90
33881;DHT22;20172;47.530;10.256;2022-12-07T05:55:19;3.30;99.90
33881;DHT22;20172;47.530;10.256;2022-12-07T05:57:45;3.30;99.90
33881;DHT22;20172;47.530;10.256;2022-12-07T06:00:30;3.40;99.90
33881;DHT22;20172;47.530;10.256;2022-12-07T06:02:56;3.50;99.90
33881;DHT22;20172;47.530;10.256;2022-12-07T06:05:21;3.50;99.90
33881;DHT22;20172;47.530;10.256;2022-12-07T06:07:47;3.70;99.90
33881;DHT22;20172;47.530;10.256;2022-12-07T06:10:12;3.60;99.90
33881;DHT22;20172;47.530;10.256;2022-12-07T06:12:38;3.70;99.90
33881;DHT22;20172;47.530;10.256;2022-12-07T06:15:05;3.70;99.90
33881;DHT22;20172;47.530;10.256;2022-12-07T06:17:31;3.60;99.90
33881;DHT22;20172;47.530;10.256;2022-12-07T06:19:57;3.60;99.90
33881;DHT22;20172;47.530;10.256;2022-12-07T06:22:22;3.70;99.90
33881;DHT22;20172;47.530;10.256;2022-12-07T06:24:48;3.70;99.90
33881;DHT22;20172;47.530;10.256;2022-12-07T06:27:13;3.70;99.90
33881;DHT22;20172;47.530;10.256;2022-12-07T06:29:39;3.70;99.90
33881;DHT22;20172;47.530;10.256;2022-12-07T06:32:04;3.70;99.90
33881;DHT22;20172;47.530;10.256;2022-12-07T06:34:30;3.80;99.90
33881;DHT22;20172;47.530;10.256;2022-12-07T06:36:56;3.70;99.90
33881;DHT22;20172;47.530;10.256;2022-12-07T06:39:22;3.80;99.90
33881;DHT22;20172;47.530;10.256;2022-12-07T06:41:49;3.70;99.90
33881;DHT22;20172;47.530;10.256;2022-12-07T06:44:16;3.70;99.90
33881;DHT22;20172;47.530;10.256;2022-12-07T06:46:42;3.80;99.90
33881;DHT22;20172;47.530;10.256;2022-12-07T06:49:07;3.70;99.90
33881;DHT22;20172;47.530;10.256;2022-12-07T06:51:33;3.70;99.90
33881;DHT22;20172;47.530;10.256;2022-12-07T06:54:04;3.90;99.90
33881;DHT22;20172;47.530;10.256;2022-12-07T06:56:30;4.00;99.90
33881;DHT22;20172;47.530;10.256;2022-12-07T06:58:55;3.90;99.90
33881;DHT22;20172;47.530;10.256;2022-12-07T07:01:21;3.90;99.90
33881;DHT22;20172;47.530;10.256;2022-12-07T07:03:49;3.90;99.90
33881;DHT22;20172;47.530;10.256;2022-12-07T07:06:15;3.80;99.90
33881;DHT22;20172;47.530;10.256;2022-12-07T07:08:40;3.70;99.90
33881;DHT22;20172;47.530;10.256;2022-12-07T07:11:06;3.60;99.90
33881;DHT22;20172;47.530;10.256;2022-12-07T07:13:32;3.60;99.90
33881;DHT22;20172;47.530;10.256;2022-12-07T07:15:58;3.70;99.90
33881;DHT22;20172;47.530;10.256;2022-12-07T07:18:24;3.60;99.90
33881;DHT22;20172;47.530;10.256;2022-12-07T07:20:50;3.60;99.90
33881;DHT22;20172;47.530;10.256;2022-12-07T07:23:15;3.60;99.90
33881;DHT22;20172;47.530;10.256;2022-12-07T07:25:41;3.60;99.90
33881;DHT22;20172;47.530;10.256;2022-12-07T07:28:06;3.80;99.90
33881;DHT22;20172;47.530;10.256;2022-12-07T07:30:32;3.90;99.90
33881;DHT22;20172;47.530;10.256;2022-12-07T07:33:01;3.80;99.90
33881;DHT22;20172;47.530;10.256;2022-12-07T07:35:27;3.80;99.90
33881;DHT22;20172;47.530;10.256;2022-12-07T07:37:53;3.80;99.90
33881;DHT22;20172;47.530;10.256;2022-12-07T07:40:19;3.80;99.90
33881;DHT22;20172;47.530;10.256;2022-12-07T07:42:46;3.90;99.90
33881;DHT22;20172;47.530;10.256;2022-12-07T07:45:12;3.90;99.90
33881;DHT22;20172;47.530;10.256;2022-12-07T07:47:37;3.90;99.90
33881;DHT22;20172;47.530;10.256;2022-12-07T07:50:04;3.90;99.90
33881;DHT22;20172;47.530;10.256;2022-12-07T07:52:30;4.00;99.90
33881;DHT22;20172;47.530;10.256;2022-12-07T07:54:56;3.90;99.90
33881;DHT22;20172;47.530;10.256;2022-12-07T07:57:21;4.00;99.90
33881;DHT22;20172;47.530;10.256;2022-12-07T07:59:47;4.00;99.90
33881;DHT22;20172;47.530;10.256;2022-12-07T08:02:16;3.80;99.90
33881;DHT22;20172;47.530;10.256;2022-12-07T08:04:42;3.90;99.90
33881;DHT22;20172;47.530;10.256;2022-12-07T08:07:08;3.90;99.90
33881;DHT22;20172;47.530;10.256;2022-12-07T08:09:33;3.90;99.90
33881;DHT22;20172;47.530;10.256;2022-12-07T08:11:59;3.90;99.90
33881;DHT22;20172;47.530;10.256;2022-12-07T08:14:25;4.00;99.90
33881;DHT22;20172;47.530;10.256;2022-12-07T08:16:53;4.00;99.90
33881;DHT22;20172;47.530;10.256;2022-12-07T08:19:18;4.00;99.90
33881;DHT22;20172;47.530;10.256;2022-12-07T08:21:45;4.10;99.90
33881;DHT22;20172;47.530;10.256;2022-12-07T08:24:12;4.10;99.90
33881;DHT22;20172;47.530;10.256;2022-12-07T08:26:37;4.10;99.90
33881;DHT22;20172;47.530;10.256;2022-12-07T08:29:03;4.00;99.90
33881;DHT22;20172;47.530;10.256;2022-12-07T08:31:29;4.00;99.90
33881;DHT22;20172;47.530;10.256;2022-12-07T08:33:55;3.80;99.90
33881;DHT22;20172;47.530;10.256;2022-12-07T08:36:20;3.90;99.90
33881;DHT22;20172;47.530;10.256;2022-12-07T08:38:49;4.00;99.90
33881;DHT22;20172;47.530;10.256;2022-12-07T08:41:38;4.00;99.90
33881;DHT22;20172;47.530;10.256;2022-12-07T08:44:03;4.00;99.90
33881;DHT22;20172;47.530;10.256;2022-12-07T08:48:56;3.90;99.90
33881;DHT22;20172;47.530;10.256;2022-12-07T08:51:23;4.10;99.90
33881;DHT22;20172;47.530;10.256;2022-12-07T08:53:49;4.20;99.90
33881;DHT22;20172;47.530;10.256;2022-12-07T08:56:15;4.20;99.90
33881;DHT22;20172;47.530;10.256;2022-12-07T08:58:40;4.10;99.90
33881;DHT22;20172;47.530;10.256;2022-12-07T09:01:06;4.20;99.90
33881;DHT22;20172;47.530;10.256;2022-12-07T09:03:32;4.10;99.90
33881;DHT22;20172;47.530;10.256;2022-12-07T09:05:57;4.10;99.90
33881;DHT22;20172;47.530;10.256;2022-12-07T09:08:25;4.20;99.90
33881;DHT22;20172;47.530;10.256;2022-12-07T09:10:51;4.40;99.90
33881;DHT22;20172;47.530;10.256;2022-12-07T09:13:16;4.30;99.90
33881;DHT22;20172;47.530;10.256;2022-12-07T09:15:42;4.20;99.90
33881;DHT22;20172;47.530;10.256;2022-12-07T09:18:07;4.30;99.90
33881;DHT22;20172;47.530;10.256;2022-12-07T09:20:33;4.50;99.90
33881;DHT22;20172;47.530;10.256;2022-12-07T09:22:59;4.50;99.90
33881;DHT22;20172;47.530;10.256;2022-12-07T09:25:24;4.60;99.90
33881;DHT22;20172;47.530;10.256;2022-12-07T09:27:56;4.90;99.90
33881;DHT22;20172;47.530;10.256;2022-12-07T09:30:22;4.90;99.90
33881;DHT22;20172;47.530;10.256;2022-12-07T09:32:47;4.90;99.90
33881;DHT22;20172;47.530;10.256;2022-12-07T09:35:16;4.90;99.90
33881;DHT22;20172;47.530;10.256;2022-12-07T09:37:42;4.80;99.90
33881;DHT22;20172;47.530;10.256;2022-12-07T09:40:08;4.90;99.90
33881;DHT22;20172;47.530;10.256;2022-12-07T09:42:35;4.70;99.90
33881;DHT22;20172;47.530;10.256;2022-12-07T09:45:02;4.70;99.90
33881;DHT22;20172;47.530;10.256;2022-12-07T09:47:29;4.70;99.90
33881;DHT22;20172;47.530;10.256;2022-12-07T09:49:57;4.80;99.90
33881;DHT22;20172;47.530;10.256;2022-12-07T09:52:27;5.00;99.90
33881;DHT22;20172;47.530;10.256;2022-12-07T09:54:53;5.00;99.90
33881;DHT22;20172;47.530;10.256;2022-12-07T09:57:25;5.10;99.90
33881;DHT22;20172;47.530;10.256;2022-12-07T10:00:00;5.10;99.90
33881;DHT22;20172;47.530;10.256;2022-12-07T10:02:40;5.20;99.90
33881;DHT22;20172;47.530;10.256;2022-12-07T10:05:10;5.30;99.90
33881;DHT22;20172;47.530;10.256;2022-12-07T10:07:37;5.50;99.90
33881;DHT22;20172;47.530;10.256;2022-12-07T10:10:04;5.60;99.90
33881;DHT22;20172;47.530;10.256;2022-12-07T10:12:30;5.60;99.90
33881;DHT22;20172;47.530;10.256;2022-12-07T10:15:02;5.50;99.90
33881;DHT22;20172;47.530;10.256;2022-12-07T10:17:38;5.40;99.90
33881;DHT22;20172;47.530;10.256;2022-12-07T10:22:37;5.20;99.90
33881;DHT22;20172;47.530;10.256;2022-12-07T10:25:16;5.10;99.90
33881;DHT22;20172;47.530;10.256;2022-12-07T10:27:43;5.00;99.90
33881;DHT22;20172;47.530;10.256;2022-12-07T10:30:21;4.90;99.90
33881;DHT22;20172;47.530;10.256;2022-12-07T10:32:47;4.80;99.90
33881;DHT22;20172;47.530;10.256;2022-12-07T10:35:20;4.80;99.90
33881;DHT22;20172;47.530;10.256;2022-12-07T10:37:47;4.80;99.90
33881;DHT22;20172;47.530;10.256;2022-12-07T10:40:34;4.90;99.90
33881;DHT22;20172;47.530;10.256;2022-12-07T10:45:30;5.10;99.90
33881;DHT22;20172;47.530;10.256;2022-12-07T10:48:11;5.20;99.90
33881;DHT22;20172;47.530;10.256;2022-12-07T10:53:44;5.10;99.90
33881;DHT22;20172;47.530;10.256;2022-12-07T10:59:09;5.10;99.90
33881;DHT22;20172;47.530;10.256;2022-12-07T11:06:27;4.90;99.90
33881;DHT22;20172;47.530;10.256;2022-12-07T11:14:01;4.70;99.90
33881;DHT22;20172;47.530;10.256;2022-12-07T11:17:14;4.70;99.90
33881;DHT22;20172;47.530;10.256;2022-12-07T11:22:09;4.70;99.90
33881;DHT22;20172;47.530;10.256;2022-12-07T11:30:15;4.80;99.90
33881;DHT22;20172;47.530;10.256;2022-12-07T11:37:39;4.80;99.90
33881;DHT22;20172;47.530;10.256;2022-12-07T11:40:17;4.80;99.90
33881;DHT22;20172;47.530;10.256;2022-12-07T11:42:52;4.70;99.90
33881;DHT22;20172;47.530;10.256;2022-12-07T11:45:23;4.60;99.90
33881;DHT22;20172;47.530;10.256;2022-12-07T11:48:03;4.50;99.90
33881;DHT22;20172;47.530;10.256;2022-12-07T11:50:34;4.50;99.90
33881;DHT22;20172;47.530;10.256;2022-12-07T11:58:02;4.60;99.90
33881;DHT22;20172;47.530;10.256;2022-12-07T12:00:28;4.60;99.90
33881;DHT22;20172;47.530;10.256;2022-12-07T12:03:04;4.60;99.90
33881;DHT22;20172;47.530;10.256;2022-12-07T12:05:34;4.50;99.90
33881;DHT22;20172;47.530;10.256;2022-12-07T12:08:13;4.50;99.90
33881;DHT22;20172;47.530;10.256;2022-12-07T12:13:14;4.60;99.90
33881;DHT22;20172;47.530;10.256;2022-12-07T12:20:51;4.70;99.90
33881;DHT22;20172;47.530;10.256;2022-12-07T12:23:27;4.70;99.90
33881;DHT22;20172;47.530;10.256;2022-12-07T12:26:03;4.80;99.90
33881;DHT22;20172;47.530;10.256;2022-12-07T12:34:00;4.80;99.90
33881;DHT22;20172;47.530;10.256;2022-12-07T12:46:56;4.90;99.90
33881;DHT22;20172;47.530;10.256;2022-12-07T12:54:20;4.90;99.90
33881;DHT22;20172;47.530;10.256;2022-12-07T13:01:46;4.90;99.90
33881;DHT22;20172;47.530;10.256;2022-12-07T13:04:59;5.00;99.90
33881;DHT22;20172;47.530;10.256;2022-12-07T13:06:58;5.00;99.90
33881;DHT22;20172;47.530;10.256;2022-12-07T13:09:28;4.90;99.90
33881;DHT22;20172;47.530;10.256;2022-12-07T13:12:04;4.80;99.90
33881;DHT22;20172;47.530;10.256;2022-12-07T13:14:41;4.80;99.90
33881;DHT22;20172;47.530;10.256;2022-12-07T13:24:58;5.10;99.90
33881;DHT22;20172;47.530;10.256;2022-12-07T13:27:27;5.10;99.90
33881;DHT22;20172;47.530;10.256;2022-12-07T13:29:55;5.10;99.90
33881;DHT22;20172;47.530;10.256;2022-12-07T13:32:25;5.00;99.90
33881;DHT22;20172;47.530;10.256;2022-12-07T13:34:51;4.90;99.90
33881;DHT22;20172;47.530;10.256;2022-12-07T13:40:01;5.00;99.90
33881;DHT22;20172;47.530;10.256;2022-12-07T13:42:31;4.90;99.90
33881;DHT22;20172;47.530;10.256;2022-12-07T13:44:58;5.00;99.90
33881;DHT22;20172;47.530;10.256;2022-12-07T13:49:51;5.10;99.90
33881;DHT22;20172;47.530;10.256;2022-12-07T13:52:18;5.10;99.90
33881;DHT22;20172;47.530;10.256;2022-12-07T13:55:29;5.00;99.90
33881;DHT22;20172;47.530;10.256;2022-12-07T13:57:30;5.00;99.90
33881;DHT22;20172;47.530;10.256;2022-12-07T13:59:57;5.00;99.90
33881;DHT22;20172;47.530;10.256;2022-12-07T14:02:30;5.00;99.90
33881;DHT22;20172;47.530;10.256;2022-12-07T14:06:02;5.00;99.90
33881;DHT22;20172;47.530;10.256;2022-12-07T14:07:55;5.00;99.90
33881;DHT22;20172;47.530;10.256;2022-12-07T14:10:23;5.00;99.90
33881;DHT22;20172;47.530;10.256;2022-12-07T14:12:49;4.90;99.90
33881;DHT22;20172;47.530;10.256;2022-12-07T14:15:19;5.00;99.90
33881;DHT22;20172;47.530;10.256;2022-12-07T14:17:52;5.00;99.90
33881;DHT22;20172;47.530;10.256;2022-12-07T14:23:02;5.00;99.90
33881;DHT22;20172;47.530;10.256;2022-12-07T14:25:47;5.00;99.90
33881;DHT22;20172;47.530;10.256;2022-12-07T14:31:16;5.00;99.90
33881;DHT22;20172;47.530;10.256;2022-12-07T14:33:41;5.00;99.90
33881;DHT22;20172;47.530;10.256;2022-12-07T14:36:10;4.90;99.90
33881;DHT22;20172;47.530;10.256;2022-12-07T14:38:36;4.90;99.90
33881;DHT22;20172;47.530;10.256;2022-12-07T14:41:01;4.90;99.90
33881;DHT22;20172;47.530;10.256;2022-12-07T14:43:46;4.90;99.90
33881;DHT22;20172;47.530;10.256;2022-12-07T14:46:11;4.80;99.90
33881;DHT22;20172;47.530;10.256;2022-12-07T14:48:37;4.80;99.90
33881;DHT22;20172;47.530;10.256;2022-12-07T14:51:02;4.90;99.90
33881;DHT22;20172;47.530;10.256;2022-12-07T14:53:30;4.90;99.90
33881;DHT22;20172;47.530;10.256;2022-12-07T14:55:56;4.90;99.90
33881;DHT22;20172;47.530;10.256;2022-12-07T14:58:22;5.00;99.90
33881;DHT22;20172;47.530;10.256;2022-12-07T15:00:47;4.90;99.90
33881;DHT22;20172;47.530;10.256;2022-12-07T15:03:13;4.90;99.90
33881;DHT22;20172;47.530;10.256;2022-12-07T15:05:39;4.90;99.90
33881;DHT22;20172;47.530;10.256;2022-12-07T15:08:05;4.90;99.90
33881;DHT22;20172;47.530;10.256;2022-12-07T15:10:31;4.90;99.90
33881;DHT22;20172;47.530;10.256;2022-12-07T15:12:57;4.90;99.90
33881;DHT22;20172;47.530;10.256;2022-12-07T15:15:42;4.80;99.90
33881;DHT22;20172;47.530;10.256;2022-12-07T15:18:07;4.90;99.90
33881;DHT22;20172;47.530;10.256;2022-12-07T15:20:33;4.90;99.90
33881;DHT22;20172;47.530;10.256;2022-12-07T15:22:58;4.80;99.90
33881;DHT22;20172;47.530;10.256;2022-12-07T15:25:24;4.80;99.90
33881;DHT22;20172;47.530;10.256;2022-12-07T15:27:49;4.80;99.90
33881;DHT22;20172;47.530;10.256;2022-12-07T15:30:15;4.70;99.90
33881;DHT22;20172;47.530;10.256;2022-12-07T15:32:40;4.80;99.90
33881;DHT22;20172;47.530;10.256;2022-12-07T15:35:06;4.80;99.90
33881;DHT22;20172;47.530;10.256;2022-12-07T15:37:32;4.70;99.90
33881;DHT22;20172;47.530;10.256;2022-12-07T15:39:57;4.70;99.90
33881;DHT22;20172;47.530;10.256;2022-12-07T15:42:22;4.70;99.90
33881;DHT22;20172;47.530;10.256;2022-12-07T15:44:48;4.70;99.90
33881;DHT22;20172;47.530;10.256;2022-12-07T15:47:29;4.70;99.90
33881;DHT22;20172;47.530;10.256;2022-12-07T15:49:55;4.60;99.90
33881;DHT22;20172;47.530;10.256;2022-12-07T15:52:21;4.50;99.90
33881;DHT22;20172;47.530;10.256;2022-12-07T15:54:46;4.50;99.90
33881;DHT22;20172;47.530;10.256;2022-12-07T15:57:13;4.50;99.90
33881;DHT22;20172;47.530;10.256;2022-12-07T15:59:38;4.40;99.90
33881;DHT22;20172;47.530;10.256;2022-12-07T16:02:04;4.40;99.90
33881;DHT22;20172;47.530;10.256;2022-12-07T16:04:29;4.30;99.90
33881;DHT22;20172;47.530;10.256;2022-12-07T16:06:55;4.40;99.90
33881;DHT22;20172;47.530;10.256;2022-12-07T16:09:21;4.40;99.90
33881;DHT22;20172;47.530;10.256;2022-12-07T16:11:47;4.40;99.90
33881;DHT22;20172;47.530;10.256;2022-12-07T16:14:13;4.40;99.90
33881;DHT22;20172;47.530;10.256;2022-12-07T16:16:38;4.40;99.90
33881;DHT22;20172;47.530;10.256;2022-12-07T16:19:05;4.40;99.90
33881;DHT22;20172;47.530;10.256;2022-12-07T16:21:31;4.50;99.90
33881;DHT22;20172;47.530;10.256;2022-12-07T16:23:59;4.50;99.90
33881;DHT22;20172;47.530;10.256;2022-12-07T16:26:25;4.50;99.90
33881;DHT22;20172;47.530;10.256;2022-12-07T16:28:51;4.60;99.90
33881;DHT22;20172;47.530;10.256;2022-12-07T16:31:17;4.70;99.90
33881;DHT22;20172;47.530;10.256;2022-12-07T16:33:43;4.60;99.90
33881;DHT22;20172;47.530;10.256;2022-12-07T16:36:11;4.60;99.90
33881;DHT22;20172;47.530;10.256;2022-12-07T16:38:37;4.60;99.90
33881;DHT22;20172;47.530;10.256;2022-12-07T16:41:06;4.70;99.90
33881;DHT22;20172;47.530;10.256;2022-12-07T16:43:32;4.70;99.90
33881;DHT22;20172;47.530;10.256;2022-12-07T16:45:57;4.60;99.90
33881;DHT22;20172;47.530;10.256;2022-12-07T16:48:23;4.60;99.90
33881;DHT22;20172;47.530;10.256;2022-12-07T16:50:48;4.60;99.90
33881;DHT22;20172;47.530;10.256;2022-12-07T16:53:14;4.60;99.90
33881;DHT22;20172;47.530;10.256;2022-12-07T16:55:44;4.60;99.90
33881;DHT22;20172;47.530;10.256;2022-12-07T16:58:13;4.60;99.90
33881;DHT22;20172;47.530;10.256;2022-12-07T17:00:39;4.70;99.90
33881;DHT22;20172;47.530;10.256;2022-12-07T17:03:05;4.70;99.90
33881;DHT22;20172;47.530;10.256;2022-12-07T17:05:31;4.70;99.90
33881;DHT22;20172;47.530;10.256;2022-12-07T17:07:57;4.70;99.90
33881;DHT22;20172;47.530;10.256;2022-12-07T17:10:23;4.60;99.90
33881;DHT22;20172;47.530;10.256;2022-12-07T17:12:51;4.70;99.90
33881;DHT22;20172;47.530;10.256;2022-12-07T17:15:18;4.60;99.90
33881;DHT22;20172;47.530;10.256;2022-12-07T17:18:07;4.60;99.90
33881;DHT22;20172;47.530;10.256;2022-12-07T17:20:32;4.50;99.90
33881;DHT22;20172;47.530;10.256;2022-12-07T17:22:57;4.50;99.90
33881;DHT22;20172;47.530;10.256;2022-12-07T17:25:23;4.50;99.90
33881;DHT22;20172;47.530;10.256;2022-12-07T17:27:48;4.50;99.90
33881;DHT22;20172;47.530;10.256;2022-12-07T17:30:14;4.60;99.90
33881;DHT22;20172;47.530;10.256;2022-12-07T17:32:40;4.60;99.90
33881;DHT22;20172;47.530;10.256;2022-12-07T17:35:05;4.70;99.90
33881;DHT22;20172;47.530;10.256;2022-12-07T17:37:31;4.70;99.90
33881;DHT22;20172;47.530;10.256;2022-12-07T17:39:57;4.60;99.90
33881;DHT22;20172;47.530;10.256;2022-12-07T17:42:26;4.60;99.90
33881;DHT22;20172;47.530;10.256;2022-12-07T17:45:12;4.60;99.90